sensor_id;sensor_type;location;lat;lon;timestamp;pressure;altitude;pressure_sealevel;temperature;humidity
62694;BME280;48759;52.544;13.418;2023-03-20T00:00:42;100888.22;;;19.40;nan
62694;BME280;48759;52.544;13.418;2023-03-20T00:03:11;100879.09;;;19.23;nan
62694;BME280;48759;52.544;13.418;2023-03-20T00:05:39;100887.31;;;19.13;nan
62694;BME280;48759;52.544;13.418;2023-03-20T00:08:06;100897.69;;;18.57;nan
62694;BME280;48759;52.544;13.418;2023-03-20T00:10:36;100881.59;;;19.02;nan
62694;BME280;48759;52.544;13.418;2023-03-20T00:13:05;100886.63;;;19.05;nan
62694;BME280;48759;52.544;13.418;2023-03-20T00:15:35;100889.44;;;19.05;nan
62694;BME280;48759;52.544;13.418;2023-03-20T00:18:12;100893.88;;;18.63;nan
62694;BME280;48759;52.544;13.418;2023-03-20T00:20:39;100895.00;;;18.84;nan
62694;BME280;48759;52.544;13.418;2023-03-20T00:23:08;100893.41;;;19.09;nan
62694;BME280;48759;52.544;13.418;2023-03-20T00:25:36;100894.38;;;18.60;nan
62694;BME280;48759;52.544;13.418;2023-03-20T00:28:22;100890.25;;;19.23;nan
62694;BME280;48759;52.544;13.418;2023-03-20T00:30:54;100884.97;;;19.04;nan
62694;BME280;48759;52.544;13.418;2023-03-20T00:33:23;100890.09;;;18.74;nan
62694;BME280;48759;52.544;13.418;2023-03-20T00:35:51;100882.63;;;18.96;nan
62694;BME280;48759;52.544;13.418;2023-03-20T00:38:18;100891.53;;;19.37;nan
62694;BME280;48759;52.544;13.418;2023-03-20T00:40:45;100878.97;;;19.34;nan
62694;BME280;48759;52.544;13.418;2023-03-20T00:43:12;100883.66;;;18.90;nan
62694;BME280;48759;52.544;13.418;2023-03-20T00:45:41;100878.34;;;19.10;nan
62694;BME280;48759;52.544;13.418;2023-03-20T00:48:12;100872.94;;;19.21;nan
62694;BME280;48759;52.544;13.418;2023-03-20T00:50:41;100872.81;;;19.16;nan
62694;BME280;48759;52.544;13.418;2023-03-20T00:53:09;100872.59;;;18.57;nan
62694;BME280;48759;52.544;13.418;2023-03-20T00:55:38;100869.38;;;19.08;nan
62694;BME280;48759;52.544;13.418;2023-03-20T00:58:06;100871.56;;;18.63;nan
62694;BME280;48759;52.544;13.418;2023-03-20T01:00:36;100867.09;;;18.84;nan
62694;BME280;48759;52.544;13.418;2023-03-20T01:03:11;100865.91;;;18.96;nan
62694;BME280;48759;52.544;13.418;2023-03-20T01:05:38;100864.81;;;18.42;nan
62694;BME280;48759;52.544;13.418;2023-03-20T01:08:12;100877.81;;;18.03;nan
62694;BME280;48759;52.544;13.418;2023-03-20T01:10:39;100876.97;;;18.19;nan
62694;BME280;48759;52.544;13.418;2023-03-20T01:13:22;100874.88;;;17.65;nan
62694;BME280;48759;52.544;13.418;2023-03-20T01:15:50;100873.69;;;17.61;nan
62694;BME280;48759;52.544;13.418;2023-03-20T01:18:18;100872.91;;;18.60;nan
62694;BME280;48759;52.544;13.418;2023-03-20T01:20:45;100874.19;;;18.53;nan
62694;BME280;48759;52.544;13.418;2023-03-20T01:23:15;100882.88;;;18.73;nan
62694;BME280;48759;52.544;13.418;2023-03-20T01:25:42;100878.66;;;18.54;nan
62694;BME280;48759;52.544;13.418;2023-03-20T01:28:17;100872.59;;;18.57;nan
62694;BME280;48759;52.544;13.418;2023-03-20T01:30:46;100878.44;;;18.77;nan
62694;BME280;48759;52.544;13.418;2023-03-20T01:33:14;100872.00;;;18.55;nan
62694;BME280;48759;52.544;13.418;2023-03-20T01:35:42;100878.13;;;18.74;nan
62694;BME280;48759;52.544;13.418;2023-03-20T01:38:16;100881.69;;;18.69;nan
62694;BME280;48759;52.544;13.418;2023-03-20T01:40:50;100877.91;;;19.19;nan
62694;BME280;48759;52.544;13.418;2023-03-20T01:43:21;100884.44;;;18.86;nan
62694;BME280;48759;52.544;13.418;2023-03-20T01:45:55;100880.53;;;18.48;nan
62694;BME280;48759;52.544;13.418;2023-03-20T01:48:25;100878.47;;;18.44;nan
62694;BME280;48759;52.544;13.418;2023-03-20T01:50:53;100878.25;;;18.84;nan
62694;BME280;48759;52.544;13.418;2023-03-20T01:53:24;100881.03;;;19.22;nan
62694;BME280;48759;52.544;13.418;2023-03-20T01:55:53;100877.47;;;19.27;nan
62694;BME280;48759;52.544;13.418;2023-03-20T01:58:25;100878.91;;;18.69;nan
62694;BME280;48759;52.544;13.418;2023-03-20T02:00:54;100879.66;;;18.48;nan
62694;BME280;48759;52.544;13.418;2023-03-20T02:03:22;100885.09;;;19.15;nan
62694;BME280;48759;52.544;13.418;2023-03-20T02:05:50;100892.31;;;19.32;nan
62694;BME280;48759;52.544;13.418;2023-03-20T02:08:24;100895.59;;;19.07;nan
62694;BME280;48759;52.544;13.418;2023-03-20T02:10:55;100897.09;;;18.55;nan
62694;BME280;48759;52.544;13.418;2023-03-20T02:13:25;100887.81;;;18.49;nan
62694;BME280;48759;52.544;13.418;2023-03-20T02:15:55;100893.53;;;18.09;nan
62694;BME280;48759;52.544;13.418;2023-03-20T02:18:25;100895.63;;;18.69;nan
62694;BME280;48759;52.544;13.418;2023-03-20T02:21:13;100890.06;;;18.35;nan
62694;BME280;48759;52.544;13.418;2023-03-20T02:24:14;100885.56;;;18.68;nan
62694;BME280;48759;52.544;13.418;2023-03-20T02:26:57;100886.94;;;18.32;nan
62694;BME280;48759;52.544;13.418;2023-03-20T02:29:43;100887.09;;;19.19;nan
62694;BME280;48759;52.544;13.418;2023-03-20T02:32:34;100887.09;;;18.59;nan
62694;BME280;48759;52.544;13.418;2023-03-20T02:35:25;100883.84;;;18.84;nan
62694;BME280;48759;52.544;13.418;2023-03-20T02:38:25;100881.84;;;18.79;nan
62694;BME280;48759;52.544;13.418;2023-03-20T02:41:00;100885.31;;;18.69;nan
62694;BME280;48759;52.544;13.418;2023-03-20T02:43:41;100884.34;;;18.09;nan
62694;BME280;48759;52.544;13.418;2023-03-20T02:46:14;100889.22;;;17.73;nan
62694;BME280;48759;52.544;13.418;2023-03-20T02:48:54;100892.50;;;18.15;nan
62694;BME280;48759;52.544;13.418;2023-03-20T02:51:31;100889.56;;;18.05;nan
62694;BME280;48759;52.544;13.418;2023-03-20T02:54:19;100887.50;;;18.67;nan
62694;BME280;48759;52.544;13.418;2023-03-20T02:59:29;100892.34;;;18.22;nan
62694;BME280;48759;52.544;13.418;2023-03-20T03:02:04;100893.50;;;18.43;nan
62694;BME280;48759;52.544;13.418;2023-03-20T03:04:34;100885.25;;;17.98;nan
62694;BME280;48759;52.544;13.418;2023-03-20T03:07:02;100893.00;;;18.12;nan
62694;BME280;48759;52.544;13.418;2023-03-20T03:09:36;100886.94;;;17.99;nan
62694;BME280;48759;52.544;13.418;2023-03-20T03:12:12;100888.97;;;18.37;nan
62694;BME280;48759;52.544;13.418;2023-03-20T03:14:45;100879.88;;;18.58;nan
62694;BME280;48759;52.544;13.418;2023-03-20T03:17:15;100873.09;;;18.54;nan
62694;BME280;48759;52.544;13.418;2023-03-20T03:19:46;100895.88;;;17.84;nan
62694;BME280;48759;52.544;13.418;2023-03-20T03:22:15;100883.03;;;17.83;nan
62694;BME280;48759;52.544;13.418;2023-03-20T03:24:45;100894.09;;;17.66;nan
62694;BME280;48759;52.544;13.418;2023-03-20T03:27:16;100893.63;;;18.14;nan
62694;BME280;48759;52.544;13.418;2023-03-20T03:29:48;100898.84;;;17.94;nan
62694;BME280;48759;52.544;13.418;2023-03-20T03:32:28;100896.34;;;17.24;nan
62694;BME280;48759;52.544;13.418;2023-03-20T03:34:56;100900.75;;;17.77;nan
62694;BME280;48759;52.544;13.418;2023-03-20T03:37:33;100906.78;;;17.45;nan
62694;BME280;48759;52.544;13.418;2023-03-20T03:40:12;100897.94;;;17.48;nan
62694;BME280;48759;52.544;13.418;2023-03-20T03:42:48;100899.41;;;17.79;nan
62694;BME280;48759;52.544;13.418;2023-03-20T03:45:21;100893.75;;;17.34;nan
62694;BME280;48759;52.544;13.418;2023-03-20T03:47:53;100905.84;;;17.68;nan
62694;BME280;48759;52.544;13.418;2023-03-20T03:50:24;100897.28;;;17.58;nan
62694;BME280;48759;52.544;13.418;2023-03-20T03:52:55;100902.13;;;17.91;nan
62694;BME280;48759;52.544;13.418;2023-03-20T03:55:28;100900.22;;;17.80;nan
62694;BME280;48759;52.544;13.418;2023-03-20T03:58:00;100900.44;;;17.90;nan
62694;BME280;48759;52.544;13.418;2023-03-20T04:00:31;100900.22;;;17.80;nan
62694;BME280;48759;52.544;13.418;2023-03-20T04:02:59;100890.72;;;17.07;nan
62694;BME280;48759;52.544;13.418;2023-03-20T04:05:28;100901.38;;;16.99;nan
62694;BME280;48759;52.544;13.418;2023-03-20T04:08:01;100904.78;;;17.29;nan
62694;BME280;48759;52.544;13.418;2023-03-20T04:10:30;100907.78;;;17.68;nan
62694;BME280;48759;52.544;13.418;2023-03-20T04:12:57;100915.47;;;17.09;nan
62694;BME280;48759;52.544;13.418;2023-03-20T04:15:24;100921.16;;;17.14;nan
62694;BME280;48759;52.544;13.418;2023-03-20T04:17:52;100915.28;;;16.99;nan
62694;BME280;48759;52.544;13.418;2023-03-20T04:20:20;100924.69;;;16.98;nan
62694;BME280;48759;52.544;13.418;2023-03-20T04:22:47;100909.22;;;16.32;nan
62694;BME280;48759;52.544;13.418;2023-03-20T04:25:16;100923.88;;;17.66;nan
62694;BME280;48759;52.544;13.418;2023-03-20T04:27:45;100922.69;;;17.62;nan
62694;BME280;48759;52.544;13.418;2023-03-20T04:30:12;100924.97;;;17.65;nan
62694;BME280;48759;52.544;13.418;2023-03-20T04:32:39;100933.00;;;17.61;nan
62694;BME280;48759;52.544;13.418;2023-03-20T04:35:07;100924.94;;;16.85;nan
62694;BME280;48759;52.544;13.418;2023-03-20T04:37:34;100927.03;;;17.69;nan
62694;BME280;48759;52.544;13.418;2023-03-20T04:40:01;100923.88;;;17.37;nan
62694;BME280;48759;52.544;13.418;2023-03-20T04:42:28;100927.66;;;17.19;nan
62694;BME280;48759;52.544;13.418;2023-03-20T04:44:57;100923.31;;;17.64;nan
62694;BME280;48759;52.544;13.418;2023-03-20T04:47:24;100923.81;;;17.20;nan
62694;BME280;48759;52.544;13.418;2023-03-20T04:49:52;100925.84;;;17.25;nan
62694;BME280;48759;52.544;13.418;2023-03-20T04:52:19;100930.34;;;17.54;nan
62694;BME280;48759;52.544;13.418;2023-03-20T04:54:46;100924.38;;;17.34;nan
62694;BME280;48759;52.544;13.418;2023-03-20T04:57:13;100926.59;;;17.09;nan
62694;BME280;48759;52.544;13.418;2023-03-20T04:59:40;100938.72;;;17.03;nan
62694;BME280;48759;52.544;13.418;2023-03-20T05:02:08;100930.97;;;17.85;nan
62694;BME280;48759;52.544;13.418;2023-03-20T05:04:39;100926.28;;;18.02;nan
62694;BME280;48759;52.544;13.418;2023-03-20T05:07:06;100934.84;;;17.84;nan
62694;BME280;48759;52.544;13.418;2023-03-20T05:09:34;100939.09;;;17.86;nan
62694;BME280;48759;52.544;13.418;2023-03-20T05:12:00;100938.16;;;17.69;nan
62694;BME280;48759;52.544;13.418;2023-03-20T05:14:28;100935.81;;;16.98;nan
62694;BME280;48759;52.544;13.418;2023-03-20T05:16:55;100933.34;;;17.93;nan
62694;BME280;48759;52.544;13.418;2023-03-20T05:19:23;100928.22;;;17.33;nan
62694;BME280;48759;52.544;13.418;2023-03-20T05:21:50;100936.09;;;17.36;nan
62694;BME280;48759;52.544;13.418;2023-03-20T05:24:18;100931.69;;;16.42;nan
62694;BME280;48759;52.544;13.418;2023-03-20T05:26:46;100930.34;;;17.14;nan
62694;BME280;48759;52.544;13.418;2023-03-20T05:29:13;100936.09;;;17.36;nan
62694;BME280;48759;52.544;13.418;2023-03-20T05:31:40;100930.78;;;17.75;nan
62694;BME280;48759;52.544;13.418;2023-03-20T05:34:07;100936.00;;;17.59;nan
62694;BME280;48759;52.544;13.418;2023-03-20T05:36:35;100941.19;;;17.68;nan
62694;BME280;48759;52.544;13.418;2023-03-20T05:39:02;100935.47;;;18.19;nan
62694;BME280;48759;52.544;13.418;2023-03-20T05:41:31;100933.44;;;17.70;nan
62694;BME280;48759;52.544;13.418;2023-03-20T05:43:58;100924.25;;;17.29;nan
62694;BME280;48759;52.544;13.418;2023-03-20T05:46:25;100938.16;;;17.69;nan
62694;BME280;48759;52.544;13.418;2023-03-20T05:48:51;100938.13;;;18.26;nan
62694;BME280;48759;52.544;13.418;2023-03-20T05:51:19;100937.47;;;17.22;nan
62694;BME280;48759;52.544;13.418;2023-03-20T05:53:47;100935.91;;;17.54;nan
62694;BME280;48759;52.544;13.418;2023-03-20T05:56:13;100940.56;;;17.37;nan
62694;BME280;48759;52.544;13.418;2023-03-20T05:58:40;100941.34;;;16.28;nan
62694;BME280;48759;52.544;13.418;2023-03-20T06:01:08;100937.41;;;17.45;nan
62694;BME280;48759;52.544;13.418;2023-03-20T06:03:35;100934.56;;;16.24;nan
62694;BME280;48759;52.544;13.418;2023-03-20T06:06:02;100937.94;;;17.19;nan
62694;BME280;48759;52.544;13.418;2023-03-20T06:08:29;100949.53;;;17.39;nan
62694;BME280;48759;52.544;13.418;2023-03-20T06:10:57;100949.44;;;16.88;nan
62694;BME280;48759;52.544;13.418;2023-03-20T06:13:24;100954.38;;;17.32;nan
62694;BME280;48759;52.544;13.418;2023-03-20T06:15:50;100966.13;;;16.29;nan
62694;BME280;48759;52.544;13.418;2023-03-20T06:18:17;100981.84;;;16.94;nan
62694;BME280;48759;52.544;13.418;2023-03-20T06:20:45;100974.31;;;15.94;nan
62694;BME280;48759;52.544;13.418;2023-03-20T06:23:12;100973.00;;;15.12;nan
62694;BME280;48759;52.544;13.418;2023-03-20T06:25:39;100985.94;;;15.55;nan
62694;BME280;48759;52.544;13.418;2023-03-20T06:28:07;100988.59;;;15.50;nan
62694;BME280;48759;52.544;13.418;2023-03-20T06:30:34;100987.47;;;15.99;nan
62694;BME280;48759;52.544;13.418;2023-03-20T06:33:01;100989.06;;;15.77;nan
62694;BME280;48759;52.544;13.418;2023-03-20T06:35:28;100988.81;;;15.96;nan
62694;BME280;48759;52.544;13.418;2023-03-20T06:37:56;101004.94;;;16.59;nan
62694;BME280;48759;52.544;13.418;2023-03-20T06:40:23;101004.44;;;16.86;nan
62694;BME280;48759;52.544;13.418;2023-03-20T06:42:52;101007.38;;;17.02;nan
62694;BME280;48759;52.544;13.418;2023-03-20T06:45:21;101002.81;;;17.08;nan
62694;BME280;48759;52.544;13.418;2023-03-20T06:47:47;101008.59;;;15.52;nan
62694;BME280;48759;52.544;13.418;2023-03-20T06:50:15;101017.22;;;15.62;nan
62694;BME280;48759;52.544;13.418;2023-03-20T06:52:41;101009.13;;;15.79;nan
62694;BME280;48759;52.544;13.418;2023-03-20T06:55:09;101010.72;;;15.86;nan
62694;BME280;48759;52.544;13.418;2023-03-20T06:57:36;101021.59;;;14.47;nan
62694;BME280;48759;52.544;13.418;2023-03-20T07:00:03;101014.94;;;14.23;nan
62694;BME280;48759;52.544;13.418;2023-03-20T07:02:33;101018.94;;;15.45;nan
62694;BME280;48759;52.544;13.418;2023-03-20T07:05:05;101023.34;;;14.91;nan
62694;BME280;48759;52.544;13.418;2023-03-20T07:07:33;101020.59;;;15.09;nan
62694;BME280;48759;52.544;13.418;2023-03-20T07:09:59;101032.41;;;14.80;nan
62694;BME280;48759;52.544;13.418;2023-03-20T07:12:27;101023.53;;;15.14;nan
62694;BME280;48759;52.544;13.418;2023-03-20T07:14:53;101024.94;;;15.60;nan
62694;BME280;48759;52.544;13.418;2023-03-20T07:17:21;101036.88;;;15.79;nan
62694;BME280;48759;52.544;13.418;2023-03-20T07:19:49;101038.69;;;14.37;nan
62694;BME280;48759;52.544;13.418;2023-03-20T07:22:20;101036.88;;;16.08;nan
62694;BME280;48759;52.544;13.418;2023-03-20T07:24:50;101038.91;;;15.53;nan
62694;BME280;48759;52.544;13.418;2023-03-20T07:27:18;101042.53;;;16.20;nan
62694;BME280;48759;52.544;13.418;2023-03-20T07:29:44;101039.75;;;15.72;nan
62694;BME280;48759;52.544;13.418;2023-03-20T07:32:14;101051.78;;;14.24;nan
62694;BME280;48759;52.544;13.418;2023-03-20T07:34:41;101050.84;;;15.54;nan
62694;BME280;48759;52.544;13.418;2023-03-20T07:37:09;101054.75;;;14.85;nan
62694;BME280;48759;52.544;13.418;2023-03-20T07:39:36;101051.47;;;15.74;nan
62694;BME280;48759;52.544;13.418;2023-03-20T07:42:04;101051.75;;;14.62;nan
62694;BME280;48759;52.544;13.418;2023-03-20T07:44:31;101057.22;;;14.68;nan
62694;BME280;48759;52.544;13.418;2023-03-20T07:46:57;101066.31;;;15.00;nan
62694;BME280;48759;52.544;13.418;2023-03-20T07:49:24;101067.47;;;15.90;nan
62694;BME280;48759;52.544;13.418;2023-03-20T07:51:51;101058.81;;;15.98;nan
62694;BME280;48759;52.544;13.418;2023-03-20T07:54:21;101065.50;;;16.09;nan
62694;BME280;48759;52.544;13.418;2023-03-20T07:56:48;101057.00;;;16.64;nan
62694;BME280;48759;52.544;13.418;2023-03-20T07:59:17;101050.91;;;16.14;nan
62694;BME280;48759;52.544;13.418;2023-03-20T08:01:44;101051.72;;;16.32;nan
62694;BME280;48759;52.544;13.418;2023-03-20T08:04:11;101058.03;;;15.91;nan
62694;BME280;48759;52.544;13.418;2023-03-20T08:06:38;101055.69;;;16.66;nan
62694;BME280;48759;52.544;13.418;2023-03-20T08:09:06;101060.69;;;16.16;nan
62694;BME280;48759;52.544;13.418;2023-03-20T08:11:35;101063.00;;;17.14;nan
62694;BME280;48759;52.544;13.418;2023-03-20T08:14:03;101062.25;;;17.53;nan
62694;BME280;48759;52.544;13.418;2023-03-20T08:16:33;101067.41;;;17.73;nan
62694;BME280;48759;52.544;13.418;2023-03-20T08:19:00;101075.91;;;16.85;nan
62694;BME280;48759;52.544;13.418;2023-03-20T08:21:27;101073.47;;;15.87;nan
62694;BME280;48759;52.544;13.418;2023-03-20T08:23:54;101074.75;;;16.51;nan
62694;BME280;48759;52.544;13.418;2023-03-20T08:26:22;101079.66;;;16.91;nan
62694;BME280;48759;52.544;13.418;2023-03-20T08:28:50;101076.56;;;15.79;nan
62694;BME280;48759;52.544;13.418;2023-03-20T08:31:17;101093.03;;;14.70;nan
62694;BME280;48759;52.544;13.418;2023-03-20T08:33:44;101084.13;;;15.90;nan
62694;BME280;48759;52.544;13.418;2023-03-20T08:36:11;101077.59;;;16.15;nan
62694;BME280;48759;52.544;13.418;2023-03-20T08:38:39;101080.31;;;16.21;nan
62694;BME280;48759;52.544;13.418;2023-03-20T08:41:07;101083.91;;;15.55;nan
62694;BME280;48759;52.544;13.418;2023-03-20T08:43:33;101074.13;;;17.37;nan
62694;BME280;48759;52.544;13.418;2023-03-20T08:46:02;101083.34;;;18.29;nan
62694;BME280;48759;52.544;13.418;2023-03-20T08:48:29;101073.72;;;18.37;nan
62694;BME280;48759;52.544;13.418;2023-03-20T08:50:56;101072.25;;;17.66;nan
62694;BME280;48759;52.544;13.418;2023-03-20T08:53:23;101084.13;;;18.70;nan
62694;BME280;48759;52.544;13.418;2023-03-20T08:55:51;101077.38;;;19.33;nan
62694;BME280;48759;52.544;13.418;2023-03-20T08:58:19;101096.38;;;18.41;nan
62694;BME280;48759;52.544;13.418;2023-03-20T09:00:46;101080.97;;;18.21;nan
62694;BME280;48759;52.544;13.418;2023-03-20T09:03:16;101081.59;;;18.68;nan
62694;BME280;48759;52.544;13.418;2023-03-20T09:05:43;101081.81;;;17.82;nan
62694;BME280;48759;52.544;13.418;2023-03-20T09:08:11;101079.72;;;19.41;nan
62694;BME280;48759;52.544;13.418;2023-03-20T09:10:38;101074.56;;;17.57;nan
62694;BME280;48759;52.544;13.418;2023-03-20T09:13:06;101077.25;;;18.04;nan
62694;BME280;48759;52.544;13.418;2023-03-20T09:15:33;101083.78;;;18.50;nan
62694;BME280;48759;52.544;13.418;2023-03-20T09:18:00;101083.72;;;18.33;nan
62694;BME280;48759;52.544;13.418;2023-03-20T09:20:28;101083.34;;;18.75;nan
62694;BME280;48759;52.544;13.418;2023-03-20T09:22:56;101094.50;;;17.89;nan
62694;BME280;48759;52.544;13.418;2023-03-20T09:25:22;101080.69;;;18.34;nan
62694;BME280;48759;52.544;13.418;2023-03-20T09:27:50;101077.28;;;18.78;nan
62694;BME280;48759;52.544;13.418;2023-03-20T09:30:19;101082.09;;;18.49;nan
62694;BME280;48759;52.544;13.418;2023-03-20T09:32:46;101091.63;;;17.84;nan
62694;BME280;48759;52.544;13.418;2023-03-20T09:35:13;101082.81;;;17.76;nan
62694;BME280;48759;52.544;13.418;2023-03-20T09:37:41;101078.88;;;18.57;nan
62694;BME280;48759;52.544;13.418;2023-03-20T09:40:21;101076.28;;;18.10;nan
62694;BME280;48759;52.544;13.418;2023-03-20T09:42:52;101087.25;;;17.65;nan
62694;BME280;48759;52.544;13.418;2023-03-20T09:45:29;101071.28;;;18.12;nan
62694;BME280;48759;52.544;13.418;2023-03-20T09:48:04;101077.97;;;18.40;nan
62694;BME280;48759;52.544;13.418;2023-03-20T09:50:42;101071.09;;;18.59;nan
62694;BME280;48759;52.544;13.418;2023-03-20T09:53:17;101082.03;;;17.92;nan
62694;BME280;48759;52.544;13.418;2023-03-20T09:55:46;101077.13;;;17.59;nan
62694;BME280;48759;52.544;13.418;2023-03-20T09:58:20;101082.25;;;17.39;nan
62694;BME280;48759;52.544;13.418;2023-03-20T10:00:48;101080.91;;;18.33;nan
62694;BME280;48759;52.544;13.418;2023-03-20T10:03:18;101086.34;;;18.40;nan
62694;BME280;48759;52.544;13.418;2023-03-20T10:05:49;101082.44;;;18.69;nan
62694;BME280;48759;52.544;13.418;2023-03-20T10:08:22;101083.28;;;18.13;nan
62694;BME280;48759;52.544;13.418;2023-03-20T10:10:59;101088.19;;;19.29;nan
62694;BME280;48759;52.544;13.418;2023-03-20T10:13:38;101090.19;;;17.70;nan
62694;BME280;48759;52.544;13.418;2023-03-20T10:16:15;101090.63;;;18.30;nan
62694;BME280;48759;52.544;13.418;2023-03-20T10:18:50;101093.47;;;17.79;nan
62694;BME280;48759;52.544;13.418;2023-03-20T10:21:25;101089.22;;;18.16;nan
62694;BME280;48759;52.544;13.418;2023-03-20T10:24:02;101104.03;;;18.05;nan
62694;BME280;48759;52.544;13.418;2023-03-20T10:26:30;101089.56;;;17.56;nan
62694;BME280;48759;52.544;13.418;2023-03-20T10:29:00;101085.97;;;18.36;nan
62694;BME280;48759;52.544;13.418;2023-03-20T10:31:38;101092.34;;;17.91;nan
62694;BME280;48759;52.544;13.418;2023-03-20T10:34:20;101085.88;;;17.39;nan
62694;BME280;48759;52.544;13.418;2023-03-20T10:37:00;101086.78;;;17.80;nan
62694;BME280;48759;52.544;13.418;2023-03-20T10:39:46;101090.56;;;17.50;nan
62694;BME280;48759;52.544;13.418;2023-03-20T10:42:21;101077.47;;;18.14;nan
62694;BME280;48759;52.544;13.418;2023-03-20T10:44:53;101084.84;;;17.69;nan
62694;BME280;48759;52.544;13.418;2023-03-20T10:47:25;101089.50;;;17.40;nan
62694;BME280;48759;52.544;13.418;2023-03-20T10:49:58;101078.47;;;18.65;nan
62694;BME280;48759;52.544;13.418;2023-03-20T10:52:31;101075.91;;;18.35;nan
62694;BME280;48759;52.544;13.418;2023-03-20T10:55:06;101080.34;;;17.91;nan
62694;BME280;48759;52.544;13.418;2023-03-20T10:57:38;101086.41;;;18.90;nan
62694;BME280;48759;52.544;13.418;2023-03-20T11:00:16;101079.81;;;20.33;nan
62694;BME280;48759;52.544;13.418;2023-03-20T11:02:44;101079.84;;;19.90;nan
62694;BME280;48759;52.544;13.418;2023-03-20T11:05:29;101072.13;;;19.20;nan
62694;BME280;48759;52.544;13.418;2023-03-20T11:08:03;101073.63;;;18.04;nan
62694;BME280;48759;52.544;13.418;2023-03-20T11:10:35;101067.94;;;19.77;nan
62694;BME280;48759;52.544;13.418;2023-03-20T11:13:14;101081.16;;;19.82;nan
62694;BME280;48759;52.544;13.418;2023-03-20T11:15:43;101074.09;;;19.02;nan
62694;BME280;48759;52.544;13.418;2023-03-20T11:18:12;101060.47;;;20.53;nan
62694;BME280;48759;52.544;13.418;2023-03-20T11:20:45;101074.63;;;20.69;nan
62694;BME280;48759;52.544;13.418;2023-03-20T11:23:15;101078.56;;;19.03;nan
62694;BME280;48759;52.544;13.418;2023-03-20T11:25:51;101068.16;;;18.82;nan
62694;BME280;48759;52.544;13.418;2023-03-20T11:28:29;101069.41;;;20.55;nan
62694;BME280;48759;52.544;13.418;2023-03-20T11:30:59;101072.06;;;20.94;nan
62694;BME280;48759;52.544;13.418;2023-03-20T11:33:27;101066.94;;;19.83;nan
62694;BME280;48759;52.544;13.418;2023-03-20T11:36:18;101068.94;;;18.94;48.82
62694;BME280;48759;52.544;13.418;2023-03-20T11:38:45;101075.00;;;18.01;52.26
62694;BME280;48759;52.544;13.418;2023-03-20T11:41:24;101064.13;;;18.45;52.82
62694;BME280;48759;52.544;13.418;2023-03-20T11:43:51;101064.09;;;19.06;50.76
62694;BME280;48759;52.544;13.418;2023-03-20T11:46:19;101065.72;;;18.86;50.66
62694;BME280;48759;52.544;13.418;2023-03-20T11:49:02;101067.06;;;19.00;50.50
62694;BME280;48759;52.544;13.418;2023-03-20T11:51:31;101060.97;;;18.53;51.67
62694;BME280;48759;52.544;13.418;2023-03-20T11:54:01;101047.13;;;17.49;52.82
62694;BME280;48759;52.544;13.418;2023-03-20T11:56:31;101043.25;;;18.30;51.47
62694;BME280;48759;52.544;13.418;2023-03-20T11:59:01;101045.41;;;17.60;52.87
62694;BME280;48759;52.544;13.418;2023-03-20T12:01:36;101036.28;;;17.88;52.89
62694;BME280;48759;52.544;13.418;2023-03-20T12:04:09;101041.88;;;18.16;52.47
62694;BME280;48759;52.544;13.418;2023-03-20T12:06:44;101037.59;;;17.45;53.18
62694;BME280;48759;52.544;13.418;2023-03-20T12:12:15;101034.00;;;18.13;52.56
62694;BME280;48759;52.544;13.418;2023-03-20T12:14:52;101032.50;;;18.22;52.00
62694;BME280;48759;52.544;13.418;2023-03-20T12:17:33;101029.44;;;17.79;53.14
62694;BME280;48759;52.544;13.418;2023-03-20T12:20:04;101036.97;;;19.02;50.03
62694;BME280;48759;52.544;13.418;2023-03-20T12:22:37;101027.25;;;17.57;53.12
62694;BME280;48759;52.544;13.418;2023-03-20T12:25:12;101024.72;;;18.86;50.32
62694;BME280;48759;52.544;13.418;2023-03-20T12:27:46;101021.22;;;19.29;49.22
62694;BME280;48759;52.544;13.418;2023-03-20T12:30:17;101019.56;;;19.50;49.89
62694;BME280;48759;52.544;13.418;2023-03-20T12:32:53;101024.91;;;19.95;48.56
62694;BME280;48759;52.544;13.418;2023-03-20T12:35:26;101019.75;;;19.65;48.32
62694;BME280;48759;52.544;13.418;2023-03-20T12:37:54;101028.81;;;20.21;47.09
62694;BME280;48759;52.544;13.418;2023-03-20T12:40:29;101018.19;;;18.47;49.03
62694;BME280;48759;52.544;13.418;2023-03-20T12:43:04;101023.63;;;18.87;49.40
62694;BME280;48759;52.544;13.418;2023-03-20T12:45:39;101015.03;;;19.66;47.55
62694;BME280;48759;52.544;13.418;2023-03-20T12:48:23;101007.91;;;20.02;47.51
62694;BME280;48759;52.544;13.418;2023-03-20T12:51:02;101013.06;;;19.66;49.40
62694;BME280;48759;52.544;13.418;2023-03-20T12:53:40;101015.50;;;18.07;50.72
62694;BME280;48759;52.544;13.418;2023-03-20T12:58:49;101009.09;;;17.78;52.16
62694;BME280;48759;52.544;13.418;2023-03-20T13:01:19;101004.38;;;18.69;49.91
62694;BME280;48759;52.544;13.418;2023-03-20T13:04:10;100999.31;;;17.52;52.41
62694;BME280;48759;52.544;13.418;2023-03-20T13:07:10;101001.97;;;17.99;52.17
62694;BME280;48759;52.544;13.418;2023-03-20T13:10:02;100998.63;;;18.59;50.83
62694;BME280;48759;52.544;13.418;2023-03-20T13:12:39;100994.63;;;19.65;48.96
62694;BME280;48759;52.544;13.418;2023-03-20T13:15:22;101001.09;;;19.71;48.46
62694;BME280;48759;52.544;13.418;2023-03-20T13:18:00;101005.59;;;18.45;50.28
62694;BME280;48759;52.544;13.418;2023-03-20T13:20:32;100997.16;;;17.54;52.89
62694;BME280;48759;52.544;13.418;2023-03-20T13:23:11;100999.94;;;17.54;54.04
62694;BME280;48759;52.544;13.418;2023-03-20T13:25:53;101005.31;;;17.21;55.88